sensor_id;sensor_type;location;lat;lon;timestamp;P1;durP1;ratioP1;P2;durP2;ratioP2
15077;SDS011;7638;49.760;8.646;2022-11-20T00:00:38;14.30;;;9.47;;
15077;SDS011;7638;49.760;8.646;2022-11-20T00:03:23;10.83;;;7.57;;
15077;SDS011;7638;49.760;8.646;2022-11-20T00:05:49;13.73;;;8.73;;
15077;SDS011;7638;49.760;8.646;2022-11-20T00:08:15;13.27;;;8.70;;
15077;SDS011;7638;49.760;8.646;2022-11-20T00:10:41;10.83;;;6.73;;
15077;SDS011;7638;49.760;8.646;2022-11-20T00:13:07;11.17;;;7.53;;
15077;SDS011;7638;49.760;8.646;2022-11-20T00:15:33;13.20;;;7.60;;
15077;SDS011;7638;49.760;8.646;2022-11-20T00:17:59;14.50;;;8.20;;
15077;SDS011;7638;49.760;8.646;2022-11-20T00:20:26;11.33;;;7.90;;
15077;SDS011;7638;49.760;8.646;2022-11-20T00:22:52;12.63;;;7.20;;
15077;SDS011;7638;49.760;8.646;2022-11-20T00:25:18;10.63;;;6.90;;
15077;SDS011;7638;49.760;8.646;2022-11-20T00:27:44;12.80;;;7.67;;
15077;SDS011;7638;49.760;8.646;2022-11-20T00:30:10;14.27;;;7.17;;
15077;SDS011;7638;49.760;8.646;2022-11-20T00:32:49;13.03;;;8.00;;
15077;SDS011;7638;49.760;8.646;2022-11-20T00:35:15;9.43;;;6.43;;
15077;SDS011;7638;49.760;8.646;2022-11-20T00:37:41;13.30;;;7.60;;
15077;SDS011;7638;49.760;8.646;2022-11-20T00:40:07;9.70;;;7.10;;
15077;SDS011;7638;49.760;8.646;2022-11-20T00:42:33;11.13;;;7.43;;
15077;SDS011;7638;49.760;8.646;2022-11-20T00:44:59;11.07;;;7.37;;
15077;SDS011;7638;49.760;8.646;2022-11-20T00:47:25;10.23;;;7.63;;
15077;SDS011;7638;49.760;8.646;2022-11-20T00:49:51;13.97;;;7.30;;
15077;SDS011;7638;49.760;8.646;2022-11-20T00:52:17;9.23;;;6.63;;
15077;SDS011;7638;49.760;8.646;2022-11-20T00:54:43;8.57;;;5.73;;
15077;SDS011;7638;49.760;8.646;2022-11-20T00:57:11;9.47;;;6.10;;
15077;SDS011;7638;49.760;8.646;2022-11-20T00:59:37;8.10;;;5.60;;
15077;SDS011;7638;49.760;8.646;2022-11-20T01:02:12;8.17;;;5.43;;
15077;SDS011;7638;49.760;8.646;2022-11-20T01:04:41;9.20;;;5.97;;
15077;SDS011;7638;49.760;8.646;2022-11-20T01:07:07;10.40;;;6.00;;
15077;SDS011;7638;49.760;8.646;2022-11-20T01:09:33;10.03;;;5.77;;
15077;SDS011;7638;49.760;8.646;2022-11-20T01:11:59;10.23;;;6.63;;
15077;SDS011;7638;49.760;8.646;2022-11-20T01:14:25;9.77;;;7.03;;
15077;SDS011;7638;49.760;8.646;2022-11-20T01:16:51;12.63;;;7.03;;
15077;SDS011;7638;49.760;8.646;2022-11-20T01:19:18;11.00;;;7.43;;
15077;SDS011;7638;49.760;8.646;2022-11-20T01:21:45;11.73;;;7.27;;
15077;SDS011;7638;49.760;8.646;2022-11-20T01:24:13;11.67;;;7.13;;
15077;SDS011;7638;49.760;8.646;2022-11-20T01:26:40;10.00;;;6.63;;
15077;SDS011;7638;49.760;8.646;2022-11-20T01:29:09;9.50;;;6.27;;
15077;SDS011;7638;49.760;8.646;2022-11-20T01:34:41;9.17;;;6.63;;
15077;SDS011;7638;49.760;8.646;2022-11-20T01:37:07;9.67;;;6.90;;
15077;SDS011;7638;49.760;8.646;2022-11-20T01:39:33;9.10;;;6.30;;
15077;SDS011;7638;49.760;8.646;2022-11-20T01:42:01;10.57;;;7.30;;
15077;SDS011;7638;49.760;8.646;2022-11-20T01:44:50;10.23;;;6.93;;
15077;SDS011;7638;49.760;8.646;2022-11-20T01:47:25;10.57;;;7.17;;
15077;SDS011;7638;49.760;8.646;2022-11-20T01:50:04;10.80;;;7.40;;
15077;SDS011;7638;49.760;8.646;2022-11-20T01:52:36;10.77;;;7.27;;
15077;SDS011;7638;49.760;8.646;2022-11-20T01:55:06;10.27;;;6.60;;
15077;SDS011;7638;49.760;8.646;2022-11-20T01:57:34;12.97;;;8.13;;
15077;SDS011;7638;49.760;8.646;2022-11-20T02:00:03;11.13;;;6.60;;
15077;SDS011;7638;49.760;8.646;2022-11-20T02:05:27;12.17;;;7.17;;
15077;SDS011;7638;49.760;8.646;2022-11-20T02:07:54;10.30;;;6.73;;
15077;SDS011;7638;49.760;8.646;2022-11-20T02:10:23;10.73;;;6.63;;
15077;SDS011;7638;49.760;8.646;2022-11-20T02:12:49;11.27;;;6.97;;
15077;SDS011;7638;49.760;8.646;2022-11-20T02:15:34;8.23;;;6.40;;
15077;SDS011;7638;49.760;8.646;2022-11-20T02:18:00;10.00;;;6.37;;
15077;SDS011;7638;49.760;8.646;2022-11-20T02:20:28;7.80;;;5.63;;
15077;SDS011;7638;49.760;8.646;2022-11-20T02:22:55;7.73;;;5.63;;
15077;SDS011;7638;49.760;8.646;2022-11-20T02:25:23;8.53;;;5.40;;
15077;SDS011;7638;49.760;8.646;2022-11-20T02:27:50;7.37;;;5.40;;
15077;SDS011;7638;49.760;8.646;2022-11-20T02:30:16;10.97;;;5.17;;
15077;SDS011;7638;49.760;8.646;2022-11-20T02:32:42;8.17;;;5.87;;
15077;SDS011;7638;49.760;8.646;2022-11-20T02:37:43;8.03;;;5.90;;
15077;SDS011;7638;49.760;8.646;2022-11-20T02:40:10;8.87;;;5.63;;
15077;SDS011;7638;49.760;8.646;2022-11-20T02:42:37;12.67;;;6.53;;
15077;SDS011;7638;49.760;8.646;2022-11-20T02:45:04;11.83;;;6.47;;
15077;SDS011;7638;49.760;8.646;2022-11-20T02:47:33;8.23;;;6.30;;
15077;SDS011;7638;49.760;8.646;2022-11-20T02:49:59;11.20;;;7.43;;
15077;SDS011;7638;49.760;8.646;2022-11-20T02:52:25;9.23;;;6.40;;
15077;SDS011;7638;49.760;8.646;2022-11-20T02:54:51;12.53;;;7.77;;
15077;SDS011;7638;49.760;8.646;2022-11-20T02:57:17;8.80;;;5.67;;
15077;SDS011;7638;49.760;8.646;2022-11-20T02:59:43;12.23;;;7.43;;
15077;SDS011;7638;49.760;8.646;2022-11-20T03:02:12;10.07;;;6.83;;
15077;SDS011;7638;49.760;8.646;2022-11-20T03:04:38;12.20;;;7.07;;
15077;SDS011;7638;49.760;8.646;2022-11-20T03:07:05;14.93;;;7.80;;
15077;SDS011;7638;49.760;8.646;2022-11-20T03:09:31;13.13;;;7.33;;
15077;SDS011;7638;49.760;8.646;2022-11-20T03:11:57;15.70;;;7.03;;
15077;SDS011;7638;49.760;8.646;2022-11-20T03:14:23;12.57;;;8.00;;
15077;SDS011;7638;49.760;8.646;2022-11-20T03:16:49;13.00;;;7.63;;
15077;SDS011;7638;49.760;8.646;2022-11-20T03:19:15;13.13;;;7.97;;
15077;SDS011;7638;49.760;8.646;2022-11-20T03:21:41;12.50;;;7.83;;
15077;SDS011;7638;49.760;8.646;2022-11-20T03:24:07;15.93;;;9.87;;
15077;SDS011;7638;49.760;8.646;2022-11-20T03:26:33;16.90;;;10.93;;
15077;SDS011;7638;49.760;8.646;2022-11-20T03:29:00;16.70;;;10.10;;
15077;SDS011;7638;49.760;8.646;2022-11-20T03:34:30;16.17;;;11.10;;
15077;SDS011;7638;49.760;8.646;2022-11-20T03:36:56;20.30;;;11.60;;
15077;SDS011;7638;49.760;8.646;2022-11-20T03:39:22;20.77;;;12.20;;
15077;SDS011;7638;49.760;8.646;2022-11-20T03:41:48;21.80;;;11.77;;
15077;SDS011;7638;49.760;8.646;2022-11-20T03:44:14;23.10;;;13.37;;
15077;SDS011;7638;49.760;8.646;2022-11-20T03:46:40;30.50;;;12.33;;
15077;SDS011;7638;49.760;8.646;2022-11-20T03:49:06;25.10;;;13.83;;
15077;SDS011;7638;49.760;8.646;2022-11-20T03:51:33;18.97;;;11.50;;
15077;SDS011;7638;49.760;8.646;2022-11-20T03:54:00;24.17;;;13.47;;
15077;SDS011;7638;49.760;8.646;2022-11-20T03:56:30;23.83;;;13.13;;
15077;SDS011;7638;49.760;8.646;2022-11-20T03:58:57;21.47;;;12.50;;
15077;SDS011;7638;49.760;8.646;2022-11-20T04:01:27;18.57;;;11.30;;
15077;SDS011;7638;49.760;8.646;2022-11-20T04:03:54;21.13;;;11.43;;
15077;SDS011;7638;49.760;8.646;2022-11-20T04:06:22;23.17;;;12.43;;
15077;SDS011;7638;49.760;8.646;2022-11-20T04:08:48;21.33;;;11.27;;
15077;SDS011;7638;49.760;8.646;2022-11-20T04:11:18;21.40;;;11.90;;
15077;SDS011;7638;49.760;8.646;2022-11-20T04:13:47;17.70;;;11.63;;
15077;SDS011;7638;49.760;8.646;2022-11-20T04:16:13;21.10;;;12.03;;
15077;SDS011;7638;49.760;8.646;2022-11-20T04:18:39;23.60;;;12.83;;
15077;SDS011;7638;49.760;8.646;2022-11-20T04:21:05;20.87;;;12.60;;
15077;SDS011;7638;49.760;8.646;2022-11-20T04:23:31;19.37;;;12.00;;
15077;SDS011;7638;49.760;8.646;2022-11-20T04:26:08;19.13;;;11.23;;
15077;SDS011;7638;49.760;8.646;2022-11-20T04:28:34;19.93;;;11.93;;
15077;SDS011;7638;49.760;8.646;2022-11-20T04:31:07;22.33;;;12.83;;
15077;SDS011;7638;49.760;8.646;2022-11-20T04:33:35;21.63;;;12.90;;
15077;SDS011;7638;49.760;8.646;2022-11-20T04:36:02;21.83;;;13.37;;
15077;SDS011;7638;49.760;8.646;2022-11-20T04:38:29;25.53;;;13.83;;
15077;SDS011;7638;49.760;8.646;2022-11-20T04:40:56;23.10;;;13.93;;
15077;SDS011;7638;49.760;8.646;2022-11-20T04:43:23;23.70;;;13.70;;
15077;SDS011;7638;49.760;8.646;2022-11-20T04:45:53;26.20;;;14.10;;
15077;SDS011;7638;49.760;8.646;2022-11-20T04:48:20;22.90;;;13.00;;
15077;SDS011;7638;49.760;8.646;2022-11-20T04:50:46;22.23;;;12.77;;
15077;SDS011;7638;49.760;8.646;2022-11-20T04:53:12;20.27;;;12.23;;
15077;SDS011;7638;49.760;8.646;2022-11-20T04:55:38;25.67;;;13.47;;
15077;SDS011;7638;49.760;8.646;2022-11-20T04:58:04;27.33;;;12.80;;
15077;SDS011;7638;49.760;8.646;2022-11-20T05:00:30;23.27;;;13.63;;
15077;SDS011;7638;49.760;8.646;2022-11-20T05:03:06;25.47;;;13.80;;
15077;SDS011;7638;49.760;8.646;2022-11-20T05:05:33;27.13;;;14.90;;
15077;SDS011;7638;49.760;8.646;2022-11-20T05:07:59;23.73;;;13.97;;
15077;SDS011;7638;49.760;8.646;2022-11-20T05:10:25;27.77;;;14.37;;
15077;SDS011;7638;49.760;8.646;2022-11-20T05:12:52;21.53;;;12.73;;
15077;SDS011;7638;49.760;8.646;2022-11-20T05:15:18;23.27;;;13.27;;
15077;SDS011;7638;49.760;8.646;2022-11-20T05:17:50;23.37;;;13.10;;
15077;SDS011;7638;49.760;8.646;2022-11-20T05:20:18;27.67;;;13.70;;
15077;SDS011;7638;49.760;8.646;2022-11-20T05:22:44;30.13;;;14.33;;
15077;SDS011;7638;49.760;8.646;2022-11-20T05:25:10;28.10;;;13.90;;
15077;SDS011;7638;49.760;8.646;2022-11-20T05:27:37;31.20;;;14.37;;
15077;SDS011;7638;49.760;8.646;2022-11-20T05:30:04;29.80;;;15.03;;
15077;SDS011;7638;49.760;8.646;2022-11-20T05:32:42;33.23;;;15.73;;
15077;SDS011;7638;49.760;8.646;2022-11-20T05:35:08;33.27;;;15.20;;
15077;SDS011;7638;49.760;8.646;2022-11-20T05:37:34;27.20;;;15.23;;
15077;SDS011;7638;49.760;8.646;2022-11-20T05:40:00;25.90;;;14.53;;
15077;SDS011;7638;49.760;8.646;2022-11-20T05:42:29;24.40;;;14.77;;
15077;SDS011;7638;49.760;8.646;2022-11-20T05:44:58;27.00;;;14.03;;
15077;SDS011;7638;49.760;8.646;2022-11-20T05:47:25;28.37;;;13.80;;
15077;SDS011;7638;49.760;8.646;2022-11-20T05:49:51;26.80;;;14.53;;
15077;SDS011;7638;49.760;8.646;2022-11-20T05:52:17;26.30;;;14.33;;
15077;SDS011;7638;49.760;8.646;2022-11-20T05:54:44;28.93;;;14.13;;
15077;SDS011;7638;49.760;8.646;2022-11-20T05:57:10;25.27;;;14.37;;
15077;SDS011;7638;49.760;8.646;2022-11-20T05:59:36;27.33;;;14.53;;
15077;SDS011;7638;49.760;8.646;2022-11-20T06:04:53;24.23;;;14.37;;
15077;SDS011;7638;49.760;8.646;2022-11-20T06:07:28;25.03;;;13.57;;
15077;SDS011;7638;49.760;8.646;2022-11-20T06:09:54;28.13;;;14.67;;
15077;SDS011;7638;49.760;8.646;2022-11-20T06:12:20;26.93;;;14.10;;
15077;SDS011;7638;49.760;8.646;2022-11-20T06:14:46;29.17;;;15.17;;
15077;SDS011;7638;49.760;8.646;2022-11-20T06:17:12;26.43;;;14.63;;
15077;SDS011;7638;49.760;8.646;2022-11-20T06:19:38;26.83;;;14.73;;
15077;SDS011;7638;49.760;8.646;2022-11-20T06:22:04;27.57;;;14.37;;
15077;SDS011;7638;49.760;8.646;2022-11-20T06:24:30;26.50;;;14.63;;
15077;SDS011;7638;49.760;8.646;2022-11-20T06:26:56;23.83;;;13.97;;
15077;SDS011;7638;49.760;8.646;2022-11-20T06:29:22;29.53;;;15.27;;
15077;SDS011;7638;49.760;8.646;2022-11-20T06:31:48;34.67;;;15.80;;
15077;SDS011;7638;49.760;8.646;2022-11-20T06:34:14;24.20;;;14.07;;
15077;SDS011;7638;49.760;8.646;2022-11-20T06:36:40;23.27;;;13.37;;
15077;SDS011;7638;49.760;8.646;2022-11-20T06:39:06;24.07;;;14.07;;
15077;SDS011;7638;49.760;8.646;2022-11-20T06:41:32;22.90;;;12.10;;
15077;SDS011;7638;49.760;8.646;2022-11-20T06:43:58;24.07;;;13.00;;
15077;SDS011;7638;49.760;8.646;2022-11-20T06:46:24;18.00;;;11.47;;
15077;SDS011;7638;49.760;8.646;2022-11-20T06:48:50;20.83;;;12.77;;
15077;SDS011;7638;49.760;8.646;2022-11-20T06:51:16;17.93;;;12.27;;
15077;SDS011;7638;49.760;8.646;2022-11-20T06:53:42;18.67;;;11.43;;
15077;SDS011;7638;49.760;8.646;2022-11-20T06:56:08;19.87;;;11.03;;
15077;SDS011;7638;49.760;8.646;2022-11-20T06:58:34;16.07;;;9.43;;
15077;SDS011;7638;49.760;8.646;2022-11-20T07:01:02;20.53;;;10.97;;
15077;SDS011;7638;49.760;8.646;2022-11-20T07:03:28;17.83;;;10.50;;
15077;SDS011;7638;49.760;8.646;2022-11-20T07:05:55;18.07;;;10.70;;
15077;SDS011;7638;49.760;8.646;2022-11-20T07:08:21;19.47;;;11.73;;
15077;SDS011;7638;49.760;8.646;2022-11-20T07:10:47;17.47;;;10.23;;
15077;SDS011;7638;49.760;8.646;2022-11-20T07:13:13;17.87;;;10.43;;
15077;SDS011;7638;49.760;8.646;2022-11-20T07:15:39;18.70;;;10.13;;
15077;SDS011;7638;49.760;8.646;2022-11-20T07:18:05;17.47;;;10.97;;
15077;SDS011;7638;49.760;8.646;2022-11-20T07:20:31;15.80;;;9.37;;
15077;SDS011;7638;49.760;8.646;2022-11-20T07:22:58;18.20;;;10.07;;
15077;SDS011;7638;49.760;8.646;2022-11-20T07:25:24;21.87;;;11.83;;
15077;SDS011;7638;49.760;8.646;2022-11-20T07:27:51;19.17;;;11.07;;
15077;SDS011;7638;49.760;8.646;2022-11-20T07:30:17;17.70;;;11.33;;
15077;SDS011;7638;49.760;8.646;2022-11-20T07:32:46;20.73;;;11.00;;
15077;SDS011;7638;49.760;8.646;2022-11-20T07:35:12;18.70;;;10.80;;
15077;SDS011;7638;49.760;8.646;2022-11-20T07:37:38;17.07;;;11.30;;
15077;SDS011;7638;49.760;8.646;2022-11-20T07:40:04;19.53;;;11.73;;
15077;SDS011;7638;49.760;8.646;2022-11-20T07:42:30;18.67;;;11.57;;
15077;SDS011;7638;49.760;8.646;2022-11-20T07:44:56;18.70;;;11.40;;
15077;SDS011;7638;49.760;8.646;2022-11-20T07:47:22;18.83;;;11.53;;
15077;SDS011;7638;49.760;8.646;2022-11-20T07:49:48;22.17;;;12.73;;
15077;SDS011;7638;49.760;8.646;2022-11-20T07:52:14;23.80;;;12.53;;
15077;SDS011;7638;49.760;8.646;2022-11-20T07:54:40;21.67;;;12.77;;
15077;SDS011;7638;49.760;8.646;2022-11-20T07:57:06;21.33;;;11.43;;
15077;SDS011;7638;49.760;8.646;2022-11-20T07:59:32;26.93;;;14.40;;
15077;SDS011;7638;49.760;8.646;2022-11-20T08:01:58;24.97;;;13.30;;
15077;SDS011;7638;49.760;8.646;2022-11-20T08:04:24;24.67;;;13.47;;
15077;SDS011;7638;49.760;8.646;2022-11-20T08:06:51;28.97;;;13.83;;
15077;SDS011;7638;49.760;8.646;2022-11-20T08:09:17;26.03;;;13.47;;
15077;SDS011;7638;49.760;8.646;2022-11-20T08:11:43;24.23;;;13.67;;
15077;SDS011;7638;49.760;8.646;2022-11-20T08:14:28;24.50;;;13.07;;
15077;SDS011;7638;49.760;8.646;2022-11-20T08:16:54;25.43;;;13.27;;
15077;SDS011;7638;49.760;8.646;2022-11-20T08:19:20;25.40;;;13.43;;
15077;SDS011;7638;49.760;8.646;2022-11-20T08:21:46;23.10;;;12.37;;
15077;SDS011;7638;49.760;8.646;2022-11-20T08:24:12;25.37;;;13.77;;
15077;SDS011;7638;49.760;8.646;2022-11-20T08:26:38;25.00;;;13.17;;
15077;SDS011;7638;49.760;8.646;2022-11-20T08:29:04;22.47;;;12.50;;
15077;SDS011;7638;49.760;8.646;2022-11-20T08:31:35;24.60;;;11.97;;
15077;SDS011;7638;49.760;8.646;2022-11-20T08:34:02;23.10;;;12.60;;
15077;SDS011;7638;49.760;8.646;2022-11-20T08:36:28;24.77;;;12.77;;
15077;SDS011;7638;49.760;8.646;2022-11-20T08:38:54;27.80;;;14.30;;
15077;SDS011;7638;49.760;8.646;2022-11-20T08:41:21;25.53;;;12.77;;
15077;SDS011;7638;49.760;8.646;2022-11-20T08:43:51;23.53;;;12.90;;
15077;SDS011;7638;49.760;8.646;2022-11-20T08:46:17;23.80;;;13.17;;
15077;SDS011;7638;49.760;8.646;2022-11-20T08:48:44;28.40;;;14.07;;
15077;SDS011;7638;49.760;8.646;2022-11-20T08:51:10;22.23;;;12.77;;
15077;SDS011;7638;49.760;8.646;2022-11-20T08:53:37;24.53;;;13.47;;
15077;SDS011;7638;49.760;8.646;2022-11-20T08:56:03;27.23;;;13.60;;
15077;SDS011;7638;49.760;8.646;2022-11-20T08:58:29;30.40;;;14.57;;
15077;SDS011;7638;49.760;8.646;2022-11-20T09:00:55;25.33;;;13.60;;
15077;SDS011;7638;49.760;8.646;2022-11-20T09:03:21;27.87;;;13.80;;
15077;SDS011;7638;49.760;8.646;2022-11-20T09:05:47;26.57;;;13.83;;
15077;SDS011;7638;49.760;8.646;2022-11-20T09:08:13;24.40;;;13.47;;
15077;SDS011;7638;49.760;8.646;2022-11-20T09:10:39;25.20;;;13.03;;
15077;SDS011;7638;49.760;8.646;2022-11-20T09:13:05;24.83;;;13.23;;
15077;SDS011;7638;49.760;8.646;2022-11-20T09:15:32;25.33;;;13.40;;
15077;SDS011;7638;49.760;8.646;2022-11-20T09:17:59;20.50;;;11.07;;
15077;SDS011;7638;49.760;8.646;2022-11-20T09:20:26;18.77;;;11.53;;
15077;SDS011;7638;49.760;8.646;2022-11-20T09:22:53;17.47;;;10.93;;
15077;SDS011;7638;49.760;8.646;2022-11-20T09:25:19;24.90;;;12.53;;
15077;SDS011;7638;49.760;8.646;2022-11-20T09:27:46;19.73;;;11.10;;
15077;SDS011;7638;49.760;8.646;2022-11-20T09:30:13;21.00;;;12.93;;
15077;SDS011;7638;49.760;8.646;2022-11-20T09:32:45;19.30;;;12.33;;
15077;SDS011;7638;49.760;8.646;2022-11-20T09:35:11;22.07;;;12.73;;
15077;SDS011;7638;49.760;8.646;2022-11-20T09:37:37;26.73;;;13.13;;
15077;SDS011;7638;49.760;8.646;2022-11-20T09:40:03;25.80;;;13.50;;
15077;SDS011;7638;49.760;8.646;2022-11-20T09:42:37;21.33;;;13.27;;
15077;SDS011;7638;49.760;8.646;2022-11-20T09:55:20;44.67;;;16.17;;
15077;SDS011;7638;49.760;8.646;2022-11-20T09:57:47;40.00;;;15.90;;
15077;SDS011;7638;49.760;8.646;2022-11-20T10:00:14;45.47;;;17.80;;
15077;SDS011;7638;49.760;8.646;2022-11-20T10:05:15;38.00;;;15.93;;
15077;SDS011;7638;49.760;8.646;2022-11-20T10:10:21;23.87;;;13.57;;
15077;SDS011;7638;49.760;8.646;2022-11-20T10:30:35;26.13;;;14.40;;
15077;SDS011;7638;49.760;8.646;2022-11-20T10:33:21;26.40;;;14.00;;
15077;SDS011;7638;49.760;8.646;2022-11-20T10:38:24;26.07;;;15.60;;
15077;SDS011;7638;49.760;8.646;2022-11-20T10:40:55;26.47;;;13.30;;
15077;SDS011;7638;49.760;8.646;2022-11-20T10:43:41;24.23;;;13.13;;
15077;SDS011;7638;49.760;8.646;2022-11-20T10:46:10;28.23;;;14.17;;
15077;SDS011;7638;49.760;8.646;2022-11-20T10:48:36;26.23;;;13.43;;
15077;SDS011;7638;49.760;8.646;2022-11-20T10:53:51;20.03;;;12.03;;
15077;SDS011;7638;49.760;8.646;2022-11-20T10:58:59;26.57;;;14.00;;
15077;SDS011;7638;49.760;8.646;2022-11-20T11:01:39;28.37;;;14.57;;
15077;SDS011;7638;49.760;8.646;2022-11-20T11:04:07;24.53;;;14.00;;
15077;SDS011;7638;49.760;8.646;2022-11-20T11:06:37;29.60;;;15.43;;
15077;SDS011;7638;49.760;8.646;2022-11-20T11:09:12;29.90;;;15.80;;
15077;SDS011;7638;49.760;8.646;2022-11-20T11:11:39;25.97;;;14.00;;
15077;SDS011;7638;49.760;8.646;2022-11-20T11:14:06;28.37;;;15.10;;
15077;SDS011;7638;49.760;8.646;2022-11-20T11:16:32;32.63;;;16.23;;
15077;SDS011;7638;49.760;8.646;2022-11-20T11:19:05;28.13;;;14.23;;
15077;SDS011;7638;49.760;8.646;2022-11-20T11:21:31;26.47;;;14.97;;
15077;SDS011;7638;49.760;8.646;2022-11-20T11:24:02;28.47;;;14.53;;
15077;SDS011;7638;49.760;8.646;2022-11-20T11:26:29;25.13;;;14.60;;
15077;SDS011;7638;49.760;8.646;2022-11-20T11:31:31;29.87;;;15.30;;
15077;SDS011;7638;49.760;8.646;2022-11-20T11:36:55;28.33;;;15.07;;
15077;SDS011;7638;49.760;8.646;2022-11-20T11:39:21;25.77;;;14.60;;
15077;SDS011;7638;49.760;8.646;2022-11-20T11:41:48;25.97;;;14.40;;
15077;SDS011;7638;49.760;8.646;2022-11-20T11:46:59;23.97;;;14.23;;
15077;SDS011;7638;49.760;8.646;2022-11-20T11:49:25;23.80;;;14.37;;
15077;SDS011;7638;49.760;8.646;2022-11-20T11:54:25;27.13;;;14.33;;
15077;SDS011;7638;49.760;8.646;2022-11-20T11:56:53;22.50;;;13.33;;
15077;SDS011;7638;49.760;8.646;2022-11-20T11:59:43;20.93;;;12.57;;
15077;SDS011;7638;49.760;8.646;2022-11-20T12:02:31;24.20;;;13.97;;
15077;SDS011;7638;49.760;8.646;2022-11-20T12:04:55;23.50;;;14.03;;
15077;SDS011;7638;49.760;8.646;2022-11-20T12:09:58;33.27;;;16.43;;
15077;SDS011;7638;49.760;8.646;2022-11-20T12:12:34;34.37;;;17.13;;
15077;SDS011;7638;49.760;8.646;2022-11-20T12:15:01;26.60;;;14.67;;
15077;SDS011;7638;49.760;8.646;2022-11-20T12:17:28;24.90;;;14.40;;
15077;SDS011;7638;49.760;8.646;2022-11-20T12:19:54;21.27;;;13.60;;
15077;SDS011;7638;49.760;8.646;2022-11-20T12:25:07;23.07;;;14.03;;
15077;SDS011;7638;49.760;8.646;2022-11-20T12:27:49;24.57;;;15.10;;
15077;SDS011;7638;49.760;8.646;2022-11-20T12:30:18;31.03;;;15.40;;
15077;SDS011;7638;49.760;8.646;2022-11-20T12:33:01;23.73;;;14.80;;
15077;SDS011;7638;49.760;8.646;2022-11-20T12:38:17;24.40;;;15.53;;
15077;SDS011;7638;49.760;8.646;2022-11-20T12:43:23;24.67;;;13.60;;
15077;SDS011;7638;49.760;8.646;2022-11-20T13:04:12;20.33;;;12.53;;
15077;SDS011;7638;49.760;8.646;2022-11-20T13:06:42;21.57;;;13.23;;
15077;SDS011;7638;49.760;8.646;2022-11-20T13:09:11;24.83;;;13.47;;
15077;SDS011;7638;49.760;8.646;2022-11-20T13:11:44;19.37;;;12.93;;
15077;SDS011;7638;49.760;8.646;2022-11-20T13:16:57;23.27;;;12.33;;
15077;SDS011;7638;49.760;8.646;2022-11-20T13:19:24;21.27;;;13.57;;
15077;SDS011;7638;49.760;8.646;2022-11-20T13:21:52;23.10;;;13.47;;
15077;SDS011;7638;49.760;8.646;2022-11-20T13:29:46;16.80;;;11.37;;
15077;SDS011;7638;49.760;8.646;2022-11-20T13:32:14;18.87;;;10.77;;
15077;SDS011;7638;49.760;8.646;2022-11-20T13:34:50;13.53;;;8.67;;
15077;SDS011;7638;49.760;8.646;2022-11-20T13:37:24;11.77;;;7.63;;
15077;SDS011;7638;49.760;8.646;2022-11-20T13:39:51;13.53;;;7.60;;
15077;SDS011;7638;49.760;8.646;2022-11-20T13:42:23;10.23;;;5.83;;
15077;SDS011;7638;49.760;8.646;2022-11-20T13:45:00;9.17;;;6.20;;
15077;SDS011;7638;49.760;8.646;2022-11-20T13:47:26;5.60;;;3.93;;
15077;SDS011;7638;49.760;8.646;2022-11-20T13:49:53;6.53;;;4.13;;
15077;SDS011;7638;49.760;8.646;2022-11-20T14:00:20;7.57;;;3.90;;
15077;SDS011;7638;49.760;8.646;2022-11-20T14:03:01;7.63;;;3.77;;
15077;SDS011;7638;49.760;8.646;2022-11-20T14:05:27;6.00;;;4.00;;
15077;SDS011;7638;49.760;8.646;2022-11-20T14:07:54;7.67;;;3.63;;
15077;SDS011;7638;49.760;8.646;2022-11-20T14:10:24;7.67;;;3.63;;
15077;SDS011;7638;49.760;8.646;2022-11-20T14:12:50;5.57;;;3.60;;
15077;SDS011;7638;49.760;8.646;2022-11-20T14:15:29;10.10;;;3.53;;
15077;SDS011;7638;49.760;8.646;2022-11-20T14:17:56;8.17;;;3.50;;
15077;SDS011;7638;49.760;8.646;2022-11-20T14:20:23;6.80;;;2.93;;
15077;SDS011;7638;49.760;8.646;2022-11-20T14:22:50;7.67;;;2.83;;
15077;SDS011;7638;49.760;8.646;2022-11-20T14:27:43;3.43;;;2.70;;
15077;SDS011;7638;49.760;8.646;2022-11-20T14:30:44;24.37;;;11.00;;
15077;SDS011;7638;49.760;8.646;2022-11-20T14:33:05;11.10;;;5.67;;
15077;SDS011;7638;49.760;8.646;2022-11-20T14:35:34;6.67;;;3.97;;
15077;SDS011;7638;49.760;8.646;2022-11-20T14:38:00;8.53;;;4.97;;
15077;SDS011;7638;49.760;8.646;2022-11-20T14:40:31;7.57;;;4.00;;
15077;SDS011;7638;49.760;8.646;2022-11-20T14:42:57;9.77;;;4.20;;
15077;SDS011;7638;49.760;8.646;2022-11-20T14:45:24;9.47;;;3.10;;
15077;SDS011;7638;49.760;8.646;2022-11-20T14:47:51;4.23;;;2.50;;
15077;SDS011;7638;49.760;8.646;2022-11-20T14:50:27;6.13;;;3.00;;
15077;SDS011;7638;49.760;8.646;2022-11-20T14:52:54;4.97;;;3.47;;
15077;SDS011;7638;49.760;8.646;2022-11-20T14:55:27;5.30;;;3.43;;
15077;SDS011;7638;49.760;8.646;2022-11-20T14:57:54;8.23;;;3.67;;
15077;SDS011;7638;49.760;8.646;2022-11-20T15:00:22;8.07;;;3.23;;
15077;SDS011;7638;49.760;8.646;2022-11-20T15:03:01;6.07;;;3.57;;
15077;SDS011;7638;49.760;8.646;2022-11-20T15:08:25;4.47;;;2.83;;
15077;SDS011;7638;49.760;8.646;2022-11-20T15:10:51;8.67;;;3.13;;
15077;SDS011;7638;49.760;8.646;2022-11-20T15:15:57;5.13;;;3.33;;
15077;SDS011;7638;49.760;8.646;2022-11-20T15:18:28;6.27;;;2.90;;
15077;SDS011;7638;49.760;8.646;2022-11-20T15:20:54;3.80;;;2.50;;
15077;SDS011;7638;49.760;8.646;2022-11-20T15:23:21;4.90;;;2.50;;
15077;SDS011;7638;49.760;8.646;2022-11-20T15:25:48;7.20;;;2.80;;
15077;SDS011;7638;49.760;8.646;2022-11-20T15:28:21;9.10;;;2.43;;
15077;SDS011;7638;49.760;8.646;2022-11-20T15:30:49;11.10;;;2.03;;
15077;SDS011;7638;49.760;8.646;2022-11-20T15:33:15;2.57;;;1.50;;
15077;SDS011;7638;49.760;8.646;2022-11-20T15:35:41;2.57;;;1.70;;
15077;SDS011;7638;49.760;8.646;2022-11-20T15:38:07;4.10;;;2.03;;
15077;SDS011;7638;49.760;8.646;2022-11-20T15:40:33;5.20;;;1.70;;
15077;SDS011;7638;49.760;8.646;2022-11-20T15:42:59;3.07;;;1.70;;
15077;SDS011;7638;49.760;8.646;2022-11-20T15:45:38;7.20;;;2.03;;
15077;SDS011;7638;49.760;8.646;2022-11-20T15:48:08;3.67;;;2.03;;
15077;SDS011;7638;49.760;8.646;2022-11-20T15:50:41;2.27;;;1.80;;
15077;SDS011;7638;49.760;8.646;2022-11-20T15:53:10;2.67;;;1.73;;
15077;SDS011;7638;49.760;8.646;2022-11-20T15:55:36;1.90;;;1.40;;
15077;SDS011;7638;49.760;8.646;2022-11-20T15:58:01;1.90;;;1.40;;
15077;SDS011;7638;49.760;8.646;2022-11-20T16:00:27;3.77;;;1.53;;
15077;SDS011;7638;49.760;8.646;2022-11-20T16:02:54;6.13;;;2.53;;
15077;SDS011;7638;49.760;8.646;2022-11-20T16:05:20;3.40;;;2.13;;
15077;SDS011;7638;49.760;8.646;2022-11-20T16:07:48;2.70;;;1.90;;
15077;SDS011;7638;49.760;8.646;2022-11-20T16:10:15;2.57;;;1.50;;
15077;SDS011;7638;49.760;8.646;2022-11-20T16:12:41;4.13;;;1.90;;
15077;SDS011;7638;49.760;8.646;2022-11-20T16:15:26;3.83;;;1.97;;
15077;SDS011;7638;49.760;8.646;2022-11-20T16:18:11;3.40;;;1.60;;
15077;SDS011;7638;49.760;8.646;2022-11-20T16:20:37;3.13;;;1.80;;
15077;SDS011;7638;49.760;8.646;2022-11-20T16:23:03;1.73;;;1.30;;
15077;SDS011;7638;49.760;8.646;2022-11-20T16:25:30;4.07;;;1.40;;
15077;SDS011;7638;49.760;8.646;2022-11-20T16:27:56;2.97;;;1.37;;
15077;SDS011;7638;49.760;8.646;2022-11-20T16:30:22;1.13;;;1.03;;
15077;SDS011;7638;49.760;8.646;2022-11-20T16:32:48;4.37;;;1.87;;
15077;SDS011;7638;49.760;8.646;2022-11-20T16:35:14;3.37;;;1.97;;
15077;SDS011;7638;49.760;8.646;2022-11-20T16:37:40;5.30;;;2.87;;
15077;SDS011;7638;49.760;8.646;2022-11-20T16:40:08;1.63;;;1.30;;
15077;SDS011;7638;49.760;8.646;2022-11-20T16:42:34;2.67;;;1.70;;
15077;SDS011;7638;49.760;8.646;2022-11-20T16:45:00;2.37;;;1.20;;
15077;SDS011;7638;49.760;8.646;2022-11-20T16:47:26;2.23;;;1.17;;